Ames, South Dakota
Current Conditions -  °F | °C
As of 10:53 PM on Monday 26 Jan 2015 (Local Time) from KPIR Reporting Station
Clear Clear  
Wind Chill: -5°   Ceiling: Unl
Heat Index: -2°   Visibility: 10mi
Dew Point: -3°   Wind: 5mph
Humidity: 89%   Direction: 90°E
Pressure: 29.98"   Gusts: NA
Location:  44.3693°N, 100.04°W
Report Text: KPIR 270453Z AUTO 09004KT 10SM CLR M02/M03 A2998 RMK AO2 SLP165 T10171033
Loading
Personal Weather Stations






























Interactive Weather Map New forecast layout! Learn more

10-Day Weather Forecast

Advertisements
Track Severe Weather on mobile